createdAt,value
2023-02-14T17:20:44.516Z,2.00
2023-02-14T17:21:48.113Z,0.86
2023-02-14T17:22:51.279Z,2.71
2023-02-14T17:23:54.576Z,3.00
2023-02-14T17:24:58.266Z,2.57
2023-02-14T17:26:01.752Z,1.50
2023-02-14T17:27:05.351Z,1.14
2023-02-14T17:28:08.833Z,2.00
2023-02-14T17:29:12.121Z,2.86
2023-02-14T17:30:15.767Z,4.43
2023-02-14T17:31:19.576Z,4.14
2023-02-14T17:32:23.067Z,3.29
2023-02-14T17:33:26.409Z,2.43
2023-02-14T17:34:29.808Z,2.57
2023-02-14T17:35:33.236Z,2.86
2023-02-14T17:36:36.528Z,3.14
2023-02-14T17:37:39.845Z,2.00
2023-02-14T17:38:43.446Z,2.00
2023-02-14T17:39:47.133Z,1.57
2023-02-14T17:40:50.494Z,1.50
2023-02-14T17:41:54.089Z,2.00
2023-02-14T17:42:57.607Z,2.00
2023-02-14T17:44:00.660Z,2.00
2023-02-14T17:45:04.151Z,1.57
2023-02-14T17:46:07.381Z,1.29
2023-02-14T17:47:10.909Z,1.00
2023-02-14T17:48:14.300Z,1.29
2023-02-14T17:49:17.809Z,1.43
2023-02-14T17:50:21.292Z,2.00
2023-02-14T17:51:23.970Z,1.57
2023-02-14T17:52:27.442Z,1.33
2023-02-14T17:53:30.662Z,2.00
2023-02-14T17:54:34.012Z,1.57
2023-02-14T17:55:37.320Z,1.00
2023-02-14T17:56:40.683Z,1.86
2023-02-14T17:57:44.070Z,2.57
2023-02-14T17:58:47.250Z,2.43
2023-02-14T17:59:50.913Z,1.57
2023-02-14T18:00:54.431Z,1.00
2023-02-14T18:01:58.044Z,1.43
2023-02-14T18:03:01.665Z,2.29
2023-02-14T18:04:05.112Z,2.00
2023-02-14T18:05:08.913Z,1.29
2023-02-14T18:06:12.151Z,1.43
2023-02-14T18:07:15.885Z,2.00
2023-02-14T18:08:19.484Z,1.57
2023-02-14T18:09:23.376Z,1.43
2023-02-14T18:10:26.765Z,2.87
2023-02-14T18:11:30.150Z,2.71
2023-02-14T18:12:33.706Z,1.83
2023-02-14T18:13:36.918Z,1.00
2023-02-14T18:14:40.612Z,1.86
2023-02-14T18:15:50.987Z,2.43
2023-02-14T18:16:54.358Z,3.00
2023-02-14T18:17:57.519Z,2.43
2023-02-14T18:19:00.781Z,1.17
2023-02-14T18:20:04.203Z,1.67
2023-02-14T18:21:07.690Z,2.71
2023-02-14T18:22:11.188Z,2.00
2023-02-14T18:23:14.579Z,2.00
2023-02-14T18:24:18.083Z,2.43
2023-02-14T18:25:21.747Z,2.00
2023-02-14T18:26:25.033Z,1.57
2023-02-14T18:34:30.056Z,2.00
2023-02-14T18:35:33.256Z,1.29
2023-02-14T18:36:36.305Z,2.67
2023-02-14T18:37:39.567Z,2.00
2023-02-14T18:38:42.663Z,1.86
2023-02-14T18:39:45.749Z,1.43
2023-02-14T18:40:49.221Z,2.86
2023-02-14T18:41:52.899Z,3.57
2023-02-14T18:42:56.542Z,1.75
2023-02-14T18:44:00.469Z,1.57
2023-02-14T18:45:03.985Z,2.00
2023-02-14T18:46:07.185Z,2.14
2023-02-14T18:47:10.272Z,1.86
2023-02-14T18:48:15.259Z,2.57
2023-02-14T18:49:19.672Z,2.00
2023-02-14T18:50:22.774Z,2.00
2023-02-14T18:51:26.864Z,2.43
2023-02-14T18:52:30.991Z,2.50
2023-02-14T18:53:35.389Z,2.50
2023-02-14T18:54:39.394Z,2.12
2023-02-14T18:55:43.388Z,1.86
2023-02-14T18:56:47.172Z,2.50
2023-02-14T18:57:51.088Z,2.50
2023-02-14T18:58:54.887Z,2.75
2023-02-14T18:59:58.701Z,3.00
2023-02-14T19:01:02.346Z,3.00
2023-02-14T19:02:06.509Z,3.00
2023-02-14T19:03:09.648Z,3.00
2023-02-14T19:04:13.224Z,3.00
2023-02-14T19:05:16.817Z,3.57
2023-02-14T19:06:20.517Z,2.57
2023-02-14T19:07:24.522Z,2.00
2023-02-14T19:08:28.222Z,2.00
2023-02-14T19:09:31.692Z,1.87
2023-02-14T19:10:34.875Z,2.29
2023-02-14T19:11:38.584Z,3.14
2023-02-14T19:12:42.072Z,2.43
2023-02-14T19:13:45.904Z,3.43
2023-02-14T19:14:49.825Z,3.57
2023-02-14T19:15:53.466Z,3.00
2023-02-14T19:16:57.043Z,2.86
2023-02-14T19:18:00.652Z,2.86
2023-02-14T19:19:04.433Z,3.00
2023-02-14T19:20:07.737Z,2.29
2023-02-14T19:21:11.324Z,3.57
2023-02-14T19:22:15.000Z,2.57
2023-02-14T19:23:18.664Z,2.00
2023-02-14T19:24:21.985Z,2.86
2023-02-14T19:25:25.467Z,3.57
2023-02-14T19:26:28.959Z,3.14
2023-02-14T19:27:32.548Z,4.29
2023-02-14T19:28:35.992Z,4.14
2023-02-14T19:29:39.401Z,2.57
2023-02-14T19:30:42.715Z,1.57
2023-02-14T19:31:46.301Z,1.86
2023-02-14T19:32:49.686Z,2.86
2023-02-14T19:33:53.928Z,2.37
2023-02-14T19:34:57.407Z,1.75
2023-02-14T19:36:00.975Z,2.00
2023-02-14T19:37:04.567Z,2.43
2023-02-14T19:38:08.301Z,2.87
2023-02-14T19:39:12.063Z,2.43
2023-02-14T19:40:15.859Z,1.50
2023-02-14T19:41:19.138Z,1.57
2023-02-14T19:42:22.733Z,2.00
2023-02-14T19:43:26.553Z,2.00
2023-02-14T19:44:30.343Z,2.00
2023-02-14T19:45:33.835Z,2.43
2023-02-14T19:46:37.515Z,2.71
2023-02-14T19:47:47.086Z,3.00
2023-02-14T19:48:45.316Z,3.00
2023-02-14T19:49:48.788Z,2.67
2023-02-14T19:50:52.389Z,2.71
2023-02-14T19:51:56.276Z,3.29
2023-02-14T19:52:59.669Z,3.50
2023-02-14T19:54:03.181Z,3.57
2023-02-14T19:55:06.855Z,5.00
2023-02-14T19:56:10.443Z,3.86
2023-02-14T19:57:14.445Z,4.57
2023-02-14T19:58:18.240Z,4.29
2023-02-14T19:59:21.940Z,4.50
2023-02-14T20:00:25.305Z,4.86
2023-02-14T20:01:28.984Z,3.71
2023-02-14T20:02:32.662Z,3.71
2023-02-14T20:03:36.100Z,4.00
2023-02-14T20:04:39.795Z,4.14
2023-02-14T20:05:43.394Z,2.71
2023-02-14T20:06:46.994Z,3.71
2023-02-14T20:07:50.495Z,5.00
2023-02-14T20:08:53.904Z,4.14
2023-02-14T20:09:57.540Z,3.00
2023-02-14T20:11:01.488Z,2.43
2023-02-14T20:12:05.234Z,2.57
2023-02-14T20:13:08.935Z,2.00
2023-02-14T20:14:12.635Z,2.43
2023-02-14T20:15:16.129Z,3.25
2023-02-14T20:16:19.780Z,3.86
2023-02-14T20:17:22.985Z,3.50
2023-02-14T20:18:26.473Z,3.43
2023-02-14T20:19:29.858Z,3.00
2023-02-14T20:20:34.295Z,3.00
2023-02-14T20:21:38.173Z,2.12
2023-02-14T20:22:41.672Z,2.00
2023-02-14T20:23:45.719Z,3.75
2023-02-14T20:24:49.357Z,4.37
2023-02-14T20:25:52.947Z,3.57
2023-02-14T20:26:56.446Z,4.14
2023-02-14T20:27:59.719Z,3.43
2023-02-14T20:29:03.323Z,5.43
2023-02-14T20:30:07.203Z,5.57
2023-02-14T20:31:11.041Z,6.00
2023-02-14T20:32:15.240Z,4.25
2023-02-14T20:33:19.024Z,3.50
2023-02-14T20:34:22.610Z,3.71
2023-02-14T20:35:26.730Z,2.00
2023-02-14T20:36:30.305Z,2.75
2023-02-14T20:37:34.118Z,2.14
2023-02-14T20:38:37.806Z,2.37
2023-02-14T20:39:41.992Z,2.50
2023-02-14T20:40:46.238Z,2.62
2023-02-14T20:41:49.906Z,3.25
2023-02-14T20:42:53.791Z,2.57
2023-02-14T20:43:57.386Z,3.29
2023-02-14T20:45:01.306Z,3.71
2023-02-14T20:46:04.772Z,2.43
2023-02-14T20:47:09.086Z,3.43
2023-02-14T20:48:12.686Z,3.00
2023-02-14T20:49:16.709Z,2.00
2023-02-14T20:50:20.295Z,2.00
2023-02-14T20:51:24.399Z,3.12
2023-02-14T20:52:29.025Z,4.00
2023-02-14T20:53:32.811Z,4.00
2023-02-14T20:54:38.489Z,4.00
2023-02-14T20:55:41.492Z,4.00
2023-02-14T20:56:45.495Z,3.86
2023-02-14T20:57:49.517Z,3.50
2023-02-14T20:58:53.096Z,2.50
2023-02-14T20:59:56.783Z,2.43
2023-02-14T21:01:01.127Z,2.57
2023-02-14T21:02:05.306Z,2.87
2023-02-14T21:03:09.000Z,3.00
2023-02-14T21:04:12.640Z,3.00
2023-02-14T21:05:16.186Z,2.43
2023-02-14T21:06:19.770Z,3.00
2023-02-14T21:07:23.357Z,3.14
2023-02-14T21:08:26.768Z,2.14
2023-02-14T21:09:30.035Z,2.71
2023-02-14T21:10:33.511Z,3.71
2023-02-14T21:11:37.105Z,3.00
2023-02-14T21:12:40.940Z,3.00
2023-02-14T21:13:44.289Z,2.29
2023-02-14T21:14:47.878Z,6.14
2023-02-14T21:15:51.400Z,13.00
2023-02-14T21:16:55.169Z,9.43
2023-02-14T21:17:58.665Z,3.00
2023-02-14T21:19:02.354Z,2.57
2023-02-14T21:20:05.954Z,2.86
2023-02-14T21:21:09.526Z,2.14
2023-02-14T21:22:13.336Z,1.29
2023-02-14T21:23:16.719Z,2.00
2023-02-14T21:24:20.098Z,3.00
2023-02-14T21:25:25.269Z,2.86
2023-02-14T21:26:28.233Z,3.50
2023-02-14T21:27:31.523Z,2.29
2023-02-14T21:28:34.980Z,2.14
2023-02-14T21:29:38.590Z,2.00
2023-02-14T21:30:42.571Z,2.86
2023-02-14T21:31:46.456Z,2.00
2023-02-14T21:32:50.398Z,3.50
2023-02-14T21:33:54.178Z,3.25
2023-02-14T21:34:58.277Z,3.43
2023-02-14T21:36:01.974Z,3.29
2023-02-14T21:37:05.764Z,4.00
2023-02-14T21:38:09.458Z,3.14
2023-02-14T21:39:13.099Z,2.00
2023-02-14T21:40:16.836Z,1.43
2023-02-14T21:41:20.340Z,2.14
2023-02-14T21:42:23.725Z,3.57
2023-02-14T21:43:27.271Z,3.86
2023-02-14T21:44:30.699Z,1.14
2023-02-14T21:45:34.340Z,1.43
2023-02-14T21:46:37.849Z,2.37
2023-02-14T21:47:41.471Z,1.71
2023-02-14T21:48:44.965Z,2.00
2023-02-14T21:49:48.559Z,1.00
2023-02-14T21:50:52.137Z,1.14
2023-02-14T21:51:55.534Z,1.14
2023-02-14T21:52:59.530Z,0.71
2023-02-14T21:54:03.098Z,2.50
2023-02-14T21:55:06.421Z,3.86
2023-02-14T21:56:09.895Z,3.14
2023-02-14T21:57:13.680Z,2.43
2023-02-14T21:58:17.277Z,2.71
2023-02-14T21:59:20.988Z,3.43
2023-02-14T22:00:24.776Z,4.00
2023-02-14T22:01:28.361Z,5.00
2023-02-14T22:02:31.951Z,10.50
2023-02-14T22:03:35.339Z,9.14
2023-02-14T22:04:38.830Z,4.67
2023-02-14T22:05:42.316Z,3.14
2023-02-14T22:06:45.563Z,2.86
2023-02-14T22:07:48.800Z,4.43
2023-02-14T22:08:52.287Z,4.57
2023-02-14T22:09:55.657Z,5.00
2023-02-14T22:10:59.105Z,6.00
2023-02-14T22:12:02.616Z,9.00
2023-02-14T22:13:05.669Z,7.57
2023-02-14T22:14:08.912Z,5.33
2023-02-14T22:15:12.288Z,4.71
2023-02-14T22:16:15.897Z,11.29
2023-02-14T22:17:20.616Z,14.00
2023-02-14T22:18:24.187Z,3.87
2023-02-14T22:19:28.086Z,0.86
2023-02-14T22:20:31.765Z,4.00
2023-02-14T22:21:35.401Z,6.00
2023-02-14T22:22:39.094Z,7.62
2023-02-14T22:23:42.479Z,6.57
2023-02-14T22:24:46.042Z,4.00
2023-02-14T22:25:51.678Z,3.57
2023-02-14T22:26:55.055Z,2.87
2023-02-14T22:27:58.497Z,4.57
2023-02-14T22:29:02.175Z,4.29
2023-02-14T22:30:06.022Z,5.75
2023-02-14T22:31:09.698Z,5.86
2023-02-14T22:32:13.308Z,3.86
2023-02-14T22:33:16.829Z,6.87
2023-02-14T22:34:20.531Z,7.29
2023-02-14T22:35:24.221Z,5.00
2023-02-14T22:36:28.135Z,3.86
2023-02-14T22:37:32.238Z,1.00
2023-02-14T22:38:35.697Z,2.25
2023-02-14T22:39:39.515Z,2.50
2023-02-14T22:40:43.289Z,1.14
2023-02-14T22:41:46.763Z,3.25
2023-02-14T22:42:50.226Z,3.29
2023-02-14T22:43:53.976Z,3.00
2023-02-14T22:44:57.568Z,6.86
2023-02-14T22:46:01.646Z,8.86
2023-02-14T22:47:05.558Z,3.75
2023-02-14T22:48:09.352Z,3.71
2023-02-14T22:49:13.285Z,5.14
2023-02-14T22:50:17.216Z,3.50
2023-02-14T22:51:20.841Z,2.00
2023-02-14T22:52:24.427Z,2.14
2023-02-14T22:53:28.044Z,3.86
2023-02-14T22:54:31.648Z,6.12
2023-02-14T22:55:35.127Z,6.29
2023-02-14T22:56:38.292Z,3.29
2023-02-14T22:57:41.580Z,2.83
2023-02-14T22:58:44.952Z,5.14
2023-02-14T22:59:48.372Z,3.14
2023-02-14T23:00:51.641Z,2.57
2023-02-14T23:01:54.760Z,4.43
2023-02-14T23:02:58.015Z,4.71
2023-02-14T23:04:01.175Z,4.00
2023-02-14T23:05:04.365Z,3.14
2023-02-14T23:06:07.745Z,1.71
2023-02-14T23:07:11.249Z,1.29
2023-02-14T23:08:14.416Z,6.57
2023-02-14T23:09:17.905Z,7.86
2023-02-14T23:10:21.490Z,4.57
2023-02-14T23:11:24.777Z,4.86
2023-02-14T23:12:28.078Z,2.57
2023-02-14T23:13:31.283Z,1.57
2023-02-14T23:14:34.538Z,1.71
2023-02-14T23:15:37.914Z,3.14
2023-02-14T23:16:41.106Z,1.17
2023-02-14T23:17:44.636Z,1.14
2023-02-14T23:18:48.158Z,1.57
2023-02-14T23:19:51.664Z,4.29
2023-02-14T23:22:03.276Z,1.12
2023-02-14T23:23:06.771Z,0.86
2023-02-14T23:24:10.229Z,0.43
2023-02-14T23:25:14.020Z,1.14
2023-02-14T23:26:17.509Z,1.25
2023-02-14T23:27:20.903Z,1.00
2023-02-14T23:28:24.494Z,0.57
2023-02-14T23:29:27.952Z,0.43
2023-02-14T23:30:31.150Z,1.86
2023-02-14T23:31:34.564Z,3.43
2023-02-14T23:32:38.256Z,5.33
2023-02-14T23:33:41.774Z,4.43
2023-02-14T23:34:45.262Z,1.29
2023-02-14T23:35:48.905Z,1.14
2023-02-14T23:36:52.424Z,2.29
2023-02-14T23:37:56.106Z,2.71
2023-02-14T23:38:59.596Z,2.50
2023-02-14T23:40:03.199Z,2.57
2023-02-14T23:41:06.491Z,0.86
2023-02-14T23:42:10.056Z,2.43
2023-02-14T23:43:13.554Z,2.43
2023-02-14T23:44:17.069Z,2.00
2023-02-14T23:45:20.892Z,2.14
2023-02-14T23:46:24.532Z,4.50
2023-02-14T23:47:27.914Z,3.29
2023-02-14T23:48:31.512Z,2.25
2023-02-14T23:49:34.917Z,4.14
2023-02-14T23:50:38.392Z,5.57
2023-02-14T23:51:41.764Z,3.14
2023-02-14T23:52:45.459Z,1.57
2023-02-14T23:53:48.970Z,2.57
2023-02-14T23:54:52.647Z,2.29
2023-02-14T23:55:56.128Z,1.12
2023-02-14T23:56:59.734Z,1.00
2023-02-14T23:58:03.210Z,1.29
2023-02-14T23:59:06.473Z,1.00
